createdAt,value
2022-08-29T00:00:18.533Z,100595.00
2022-08-29T00:02:51.430Z,100598.00
2022-08-29T00:05:25.173Z,100596.00
2022-08-29T00:07:54.308Z,100605.00
2022-08-29T00:10:23.531Z,100589.00
2022-08-29T00:12:52.451Z,100592.00
2022-08-29T00:15:22.448Z,100588.00
2022-08-29T00:17:51.431Z,100594.00
2022-08-29T00:20:33.936Z,100592.00
2022-08-29T00:23:04.064Z,100592.00
2022-08-29T00:25:33.140Z,100597.00
2022-08-29T00:28:02.147Z,100594.00
2022-08-29T00:30:31.853Z,100599.00
2022-08-29T00:33:00.571Z,100603.00
2022-08-29T00:35:34.197Z,100605.00
2022-08-29T00:38:12.657Z,100611.00
2022-08-29T00:40:47.836Z,100598.00
2022-08-29T00:43:21.527Z,100607.00
2022-08-29T00:45:55.708Z,100607.00
2022-08-29T00:48:24.766Z,100615.00
2022-08-29T00:50:57.669Z,100614.00
2022-08-29T00:53:31.564Z,100611.00
2022-08-29T00:56:01.152Z,100611.00
2022-08-29T00:58:35.483Z,100624.00
2022-08-29T01:01:05.192Z,100617.00
2022-08-29T01:03:36.472Z,100612.00
2022-08-29T01:06:14.095Z,100614.00
2022-08-29T01:08:43.212Z,100609.00
2022-08-29T01:11:32.434Z,100615.00
2022-08-29T01:14:02.417Z,100623.00
2022-08-29T01:16:31.708Z,100612.00
2022-08-29T01:19:09.024Z,100615.00
2022-08-29T01:21:44.035Z,100622.00
2022-08-29T01:24:25.511Z,100614.00
2022-08-29T01:26:54.265Z,100620.00
2022-08-29T01:29:22.975Z,100613.00
2022-08-29T01:31:56.753Z,100624.00
2022-08-29T01:34:29.061Z,100618.00
2022-08-29T01:36:59.836Z,100624.00
2022-08-29T01:39:32.338Z,100625.00
2022-08-29T01:42:03.888Z,100633.00
2022-08-29T01:44:32.561Z,100616.00
2022-08-29T01:47:03.274Z,100632.00
2022-08-29T01:49:33.631Z,100627.00
2022-08-29T01:52:02.886Z,100625.00
2022-08-29T01:54:33.249Z,100623.00
2022-08-29T01:57:02.725Z,100629.00
2022-08-29T01:59:33.895Z,100629.00
2022-08-29T02:02:07.628Z,100629.00
2022-08-29T02:04:36.691Z,100624.00
2022-08-29T02:07:12.530Z,100626.00
2022-08-29T02:09:45.704Z,100624.00
2022-08-29T02:12:15.132Z,100630.00
2022-08-29T02:14:44.530Z,100633.00
2022-08-29T02:17:13.174Z,100637.00
2022-08-29T02:19:42.155Z,100625.00
2022-08-29T02:22:12.011Z,100621.00
2022-08-29T02:24:42.085Z,100625.00
2022-08-29T02:27:12.665Z,100624.00
2022-08-29T02:29:41.422Z,100620.00
2022-08-29T02:32:16.154Z,100627.00
2022-08-29T02:34:47.790Z,100628.00
2022-08-29T02:37:17.853Z,100627.00
2022-08-29T02:39:48.407Z,100631.00
2022-08-29T02:42:17.144Z,100630.00
2022-08-29T02:44:45.878Z,100635.00
2022-08-29T02:47:14.410Z,100636.00
2022-08-29T02:49:43.776Z,100632.00
2022-08-29T02:52:12.928Z,100636.00
2022-08-29T02:54:41.569Z,100639.00
2022-08-29T02:57:11.559Z,100639.00
2022-08-29T02:59:40.140Z,100648.00
2022-08-29T03:02:08.775Z,100643.00
2022-08-29T03:04:37.310Z,100649.00
2022-08-29T03:07:06.338Z,100640.00
2022-08-29T03:09:34.886Z,100646.00
2022-08-29T03:12:03.686Z,100635.00
2022-08-29T03:14:33.615Z,100646.00
2022-08-29T03:17:02.127Z,100647.00
2022-08-29T03:19:30.667Z,100635.00
2022-08-29T03:22:06.174Z,100631.00
2022-08-29T03:24:36.593Z,100629.00
2022-08-29T03:27:05.530Z,100634.00
2022-08-29T03:29:35.839Z,100641.00
2022-08-29T03:32:05.040Z,100640.00
2022-08-29T03:34:34.017Z,100648.00
2022-08-29T03:37:02.594Z,100636.00
2022-08-29T03:39:31.594Z,100635.00
2022-08-29T03:42:00.219Z,100634.00
2022-08-29T03:44:28.972Z,100641.00
2022-08-29T03:46:59.317Z,100647.00
2022-08-29T03:49:27.991Z,100647.00
2022-08-29T03:51:56.819Z,100639.00
2022-08-29T03:54:25.797Z,100641.00
2022-08-29T03:56:55.602Z,100642.00
2022-08-29T03:59:24.593Z,100649.00
2022-08-29T04:01:53.320Z,100655.00
2022-08-29T04:04:40.959Z,100655.00
2022-08-29T04:07:13.127Z,100655.00
2022-08-29T04:09:41.941Z,100655.00
2022-08-29T04:12:11.481Z,100653.00
2022-08-29T04:14:40.060Z,100665.00
2022-08-29T04:17:10.243Z,100660.00
2022-08-29T04:19:40.066Z,100661.00
2022-08-29T04:22:09.199Z,100665.00
2022-08-29T04:24:38.046Z,100670.00
2022-08-29T04:27:06.766Z,100668.00
2022-08-29T04:29:38.224Z,100659.00
2022-08-29T04:32:06.965Z,100664.00
2022-08-29T04:34:35.489Z,100658.00
2022-08-29T04:37:05.637Z,100664.00
2022-08-29T04:39:35.349Z,100662.00
2022-08-29T04:42:03.975Z,100669.00
2022-08-29T04:44:33.095Z,100666.00
2022-08-29T04:47:01.827Z,100673.00
2022-08-29T04:49:30.553Z,100674.00
2022-08-29T04:51:59.056Z,100668.00
2022-08-29T04:54:29.387Z,100673.00
2022-08-29T04:56:58.050Z,100675.00
2022-08-29T04:59:29.684Z,100676.00
2022-08-29T05:01:58.815Z,100684.00
2022-08-29T05:04:27.969Z,100679.00
2022-08-29T05:06:56.838Z,100681.00
2022-08-29T05:09:25.556Z,100693.00
2022-08-29T05:11:55.718Z,100692.00
2022-08-29T05:14:24.522Z,100697.00
2022-08-29T05:16:53.307Z,100697.00
2022-08-29T05:19:22.210Z,100700.00
2022-08-29T05:21:57.039Z,100708.00
2022-08-29T05:24:26.122Z,100709.00
2022-08-29T05:26:58.967Z,100713.00
2022-08-29T05:29:27.902Z,100702.00
2022-08-29T05:31:56.721Z,100708.00
2022-08-29T05:34:34.618Z,100722.00
2022-08-29T05:37:05.910Z,100724.00
2022-08-29T05:39:38.789Z,100725.00
2022-08-29T05:42:16.856Z,100728.00
2022-08-29T05:44:56.568Z,100728.00
2022-08-29T05:47:35.516Z,100733.00
2022-08-29T05:50:05.280Z,100727.00
2022-08-29T05:52:38.566Z,100732.00
2022-08-29T05:55:08.160Z,100724.00
2022-08-29T05:57:40.198Z,100736.00
2022-08-29T06:00:13.833Z,100737.00
2022-08-29T06:02:43.007Z,100742.00
2022-08-29T06:05:11.927Z,100746.00
2022-08-29T06:07:43.927Z,100743.00
2022-08-29T06:10:12.966Z,100752.00
2022-08-29T06:12:50.455Z,100752.00
2022-08-29T06:15:46.027Z,100752.00
2022-08-29T06:18:31.645Z,100756.00
2022-08-29T06:21:09.742Z,100748.00
2022-08-29T06:23:42.320Z,100754.00
2022-08-29T06:26:13.089Z,100749.00
2022-08-29T06:28:52.518Z,100752.00
2022-08-29T06:31:27.305Z,100756.00
2022-08-29T06:33:58.246Z,100753.00
2022-08-29T06:36:28.957Z,100765.00
2022-08-29T06:38:58.629Z,100774.00
2022-08-29T06:41:28.896Z,100774.00
2022-08-29T06:44:00.353Z,100772.00
2022-08-29T06:46:31.100Z,100774.00
2022-08-29T06:49:01.681Z,100777.00
2022-08-29T06:51:44.844Z,100767.00
2022-08-29T06:54:17.650Z,100774.00
2022-08-29T06:56:47.493Z,100771.00
2022-08-29T06:59:18.402Z,100775.00
2022-08-29T07:01:48.618Z,100775.00
2022-08-29T07:04:20.757Z,100777.00
2022-08-29T07:06:50.611Z,100784.00
2022-08-29T07:09:19.348Z,100781.00
2022-08-29T07:11:49.027Z,100779.00
2022-08-29T07:14:20.523Z,100773.00
2022-08-29T07:16:55.554Z,100774.00
2022-08-29T07:19:24.914Z,100772.00
2022-08-29T07:22:02.428Z,100783.00
2022-08-29T07:24:31.351Z,100779.00
2022-08-29T07:27:00.003Z,100769.00
2022-08-29T07:29:30.026Z,100781.00
2022-08-29T07:31:58.649Z,100773.00
2022-08-29T07:34:27.272Z,100781.00
2022-08-29T07:36:55.825Z,100774.00
2022-08-29T07:39:24.522Z,100777.00
2022-08-29T07:41:53.329Z,100781.00
2022-08-29T07:44:21.977Z,100779.00
2022-08-29T07:46:56.310Z,100779.00
2022-08-29T07:49:32.454Z,100779.00
2022-08-29T07:52:09.024Z,100783.00
2022-08-29T07:54:37.782Z,100777.00
2022-08-29T07:57:06.501Z,100772.00
2022-08-29T07:59:35.053Z,100774.00
2022-08-29T08:02:05.257Z,100778.00
2022-08-29T08:04:34.214Z,100766.00
2022-08-29T08:07:03.861Z,100774.00
2022-08-29T08:09:32.846Z,100779.00
2022-08-29T08:12:05.090Z,100774.00
2022-08-29T08:14:36.728Z,100770.00
2022-08-29T08:17:06.700Z,100776.00
2022-08-29T08:19:35.298Z,100783.00
2022-08-29T08:22:03.942Z,100779.00
2022-08-29T08:24:32.834Z,100786.00
2022-08-29T08:27:01.500Z,100783.00
2022-08-29T08:29:30.120Z,100782.00
2022-08-29T08:31:59.893Z,100787.00
2022-08-29T08:34:30.313Z,100792.00
2022-08-29T08:36:59.168Z,100795.00
2022-08-29T08:39:27.715Z,100803.00
2022-08-29T08:42:00.262Z,100798.00
2022-08-29T08:44:55.752Z,100804.00
2022-08-29T08:47:28.721Z,100797.00
2022-08-29T08:50:02.798Z,100797.00
2022-08-29T08:52:39.158Z,100782.00
2022-08-29T08:55:15.459Z,100782.00
2022-08-29T08:57:50.203Z,100779.00
2022-08-29T09:00:18.894Z,100780.00
2022-08-29T09:02:59.398Z,100780.00
2022-08-29T09:05:40.750Z,100786.00
2022-08-29T09:08:20.184Z,100783.00
2022-08-29T09:10:58.868Z,100798.00
2022-08-29T09:13:38.554Z,100803.00
2022-08-29T09:16:10.795Z,100796.00
2022-08-29T09:18:41.583Z,100795.00
2022-08-29T09:21:39.493Z,100802.00
2022-08-29T09:24:07.701Z,100794.00
2022-08-29T09:26:36.760Z,100799.00
2022-08-29T09:29:10.073Z,100802.00
2022-08-29T09:31:39.255Z,100795.00
2022-08-29T09:34:12.082Z,100796.00
2022-08-29T09:36:47.892Z,100797.00
2022-08-29T09:39:22.988Z,100783.00
2022-08-29T09:42:00.126Z,100799.00
2022-08-29T09:44:31.762Z,100801.00
2022-08-29T09:47:12.557Z,100797.00
2022-08-29T09:50:01.280Z,100803.00
2022-08-29T09:52:31.471Z,100793.00
2022-08-29T09:55:19.784Z,100788.00
2022-08-29T09:57:53.288Z,100792.00
2022-08-29T10:00:32.016Z,100792.00
2022-08-29T10:03:03.636Z,100786.00
2022-08-29T10:05:44.747Z,100787.00
2022-08-29T10:08:30.662Z,100782.00
2022-08-29T10:11:02.691Z,100784.00
2022-08-29T10:13:38.922Z,100782.00
2022-08-29T10:16:16.873Z,100785.00
2022-08-29T10:18:49.481Z,100781.00
2022-08-29T10:21:30.162Z,100777.00
2022-08-29T10:24:30.216Z,100783.00
2022-08-29T10:27:06.337Z,100779.00
2022-08-29T10:29:58.096Z,100777.00
2022-08-29T10:32:42.122Z,100788.00
2022-08-29T10:35:18.179Z,100780.00
2022-08-29T10:37:54.225Z,100786.00
2022-08-29T10:40:29.299Z,100781.00
2022-08-29T10:43:29.106Z,100779.00
2022-08-29T10:46:31.284Z,100791.00
2022-08-29T10:49:06.201Z,100785.00
2022-08-29T10:51:42.497Z,100786.00
2022-08-29T10:54:21.312Z,100783.00
2022-08-29T10:56:53.194Z,100782.00
2022-08-29T10:59:33.402Z,100785.00
2022-08-29T11:02:08.098Z,100786.00
2022-08-29T11:04:41.455Z,100782.00
2022-08-29T11:07:17.143Z,100787.00
2022-08-29T11:09:49.261Z,100779.00
2022-08-29T11:12:24.857Z,100776.00
2022-08-29T11:14:58.849Z,100786.00
2022-08-29T11:17:33.394Z,100781.00
2022-08-29T11:20:09.689Z,100786.00
2022-08-29T11:22:44.741Z,100774.00
2022-08-29T11:25:16.571Z,100782.00
2022-08-29T11:27:57.511Z,100777.00
2022-08-29T11:30:36.340Z,100773.00
2022-08-29T11:33:15.312Z,100776.00
2022-08-29T11:35:54.298Z,100773.00
2022-08-29T11:38:50.631Z,100775.00
2022-08-29T11:41:28.504Z,100776.00
2022-08-29T11:44:09.822Z,100769.00
2022-08-29T11:46:43.059Z,100768.00
2022-08-29T11:49:38.200Z,100771.00
2022-08-29T11:52:22.391Z,100769.00
2022-08-29T11:55:11.043Z,100767.00
2022-08-29T11:57:52.285Z,100777.00
2022-08-29T12:00:47.927Z,100777.00
2022-08-29T12:03:53.309Z,100775.00
2022-08-29T12:06:57.338Z,100764.00
2022-08-29T12:09:47.492Z,100764.00
2022-08-29T12:12:43.929Z,100763.00
2022-08-29T12:15:46.069Z,100764.00
2022-08-29T12:18:38.186Z,100762.00
2022-08-29T12:21:40.520Z,100754.00
2022-08-29T12:24:24.959Z,100760.00
2022-08-29T12:26:55.044Z,100747.00
2022-08-29T12:32:46.836Z,100755.00
2022-08-29T12:35:31.253Z,100751.00
2022-08-29T12:38:14.091Z,100747.00
2022-08-29T12:41:02.693Z,100742.00
2022-08-29T12:43:36.515Z,100736.00
2022-08-29T12:46:11.416Z,100746.00
2022-08-29T12:48:53.345Z,100738.00
2022-08-29T12:51:42.014Z,100733.00
2022-08-29T13:00:35.996Z,100740.00
2022-08-29T13:03:14.737Z,100728.00
2022-08-29T13:05:43.362Z,100731.00
2022-08-29T13:08:13.685Z,100727.00
2022-08-29T13:10:54.232Z,100730.00
2022-08-29T13:13:23.610Z,100725.00
2022-08-29T13:15:52.996Z,100726.00
2022-08-29T13:23:26.364Z,100729.00
2022-08-29T13:25:58.353Z,100724.00
2022-08-29T13:28:37.357Z,100722.00
2022-08-29T13:31:25.796Z,100723.00
2022-08-29T13:34:22.314Z,100720.00
2022-08-29T13:37:03.150Z,100710.00
2022-08-29T13:39:41.651Z,100703.00
2022-08-29T13:42:31.694Z,100710.00
2022-08-29T13:45:22.844Z,100706.00
2022-08-29T13:48:00.553Z,100704.00
2022-08-29T13:50:30.162Z,100699.00
2022-08-29T13:53:00.257Z,100697.00
2022-08-29T13:55:30.419Z,100703.00
2022-08-29T13:57:59.315Z,100699.00
2022-08-29T14:00:35.294Z,100697.00
2022-08-29T14:03:07.495Z,100704.00
2022-08-29T14:05:38.142Z,100704.00
2022-08-29T14:08:07.568Z,100711.00
2022-08-29T14:10:37.594Z,100712.00
2022-08-29T14:13:09.845Z,100700.00
2022-08-29T14:15:39.644Z,100702.00
2022-08-29T14:18:08.345Z,100702.00
2022-08-29T14:20:39.020Z,100697.00
2022-08-29T14:23:08.052Z,100699.00
2022-08-29T14:25:38.072Z,100705.00
2022-08-29T14:28:10.151Z,100694.00
2022-08-29T14:30:42.995Z,100695.00
2022-08-29T14:33:23.462Z,100692.00
2022-08-29T14:35:52.197Z,100698.00
2022-08-29T14:38:20.759Z,100689.00
2022-08-29T14:40:50.850Z,100694.00
2022-08-29T14:43:19.432Z,100690.00
2022-08-29T14:45:48.015Z,100690.00
2022-08-29T14:48:17.011Z,100689.00
2022-08-29T14:50:45.692Z,100689.00
2022-08-29T14:53:14.240Z,100679.00
2022-08-29T14:55:42.829Z,100682.00
2022-08-29T14:58:12.857Z,100674.00
2022-08-29T15:00:42.110Z,100687.00
2022-08-29T15:03:10.746Z,100679.00
2022-08-29T15:05:40.419Z,100678.00
2022-08-29T15:08:12.422Z,100679.00
2022-08-29T15:10:44.233Z,100673.00
2022-08-29T15:13:14.197Z,100666.00
2022-08-29T15:15:45.002Z,100665.00
2022-08-29T15:18:26.010Z,100663.00
2022-08-29T15:21:03.611Z,100661.00
2022-08-29T15:23:33.823Z,100656.00
2022-08-29T15:26:02.537Z,100660.00
2022-08-29T15:28:32.918Z,100660.00
2022-08-29T15:31:01.646Z,100657.00
2022-08-29T15:33:30.191Z,100656.00
2022-08-29T15:35:58.770Z,100652.00
2022-08-29T15:38:27.301Z,100662.00
2022-08-29T15:40:55.863Z,100659.00
2022-08-29T15:43:24.636Z,100660.00
2022-08-29T15:45:58.648Z,100660.00
2022-08-29T15:48:27.897Z,100658.00
2022-08-29T15:50:56.399Z,100654.00
2022-08-29T15:53:25.081Z,100660.00
2022-08-29T15:55:53.602Z,100655.00
2022-08-29T15:58:22.277Z,100651.00
2022-08-29T16:00:50.851Z,100641.00
2022-08-29T16:03:21.042Z,100641.00
2022-08-29T16:05:49.647Z,100648.00
2022-08-29T16:08:18.804Z,100640.00
2022-08-29T16:10:50.512Z,100645.00
2022-08-29T16:13:19.514Z,100645.00
2022-08-29T16:15:49.149Z,100640.00
2022-08-29T16:18:19.114Z,100644.00
2022-08-29T16:20:47.647Z,100635.00
2022-08-29T16:23:18.773Z,100636.00
2022-08-29T16:25:49.121Z,100638.00
2022-08-29T16:28:18.230Z,100628.00
2022-08-29T16:30:49.724Z,100635.00
2022-08-29T16:33:19.797Z,100634.00
2022-08-29T16:35:48.320Z,100637.00
2022-08-29T16:38:17.102Z,100632.00
2022-08-29T16:40:46.255Z,100636.00
2022-08-29T16:43:14.963Z,100632.00
2022-08-29T16:45:43.880Z,100638.00
2022-08-29T16:48:17.511Z,100629.00
2022-08-29T16:50:48.624Z,100641.00
2022-08-29T16:53:19.167Z,100641.00
2022-08-29T16:55:47.777Z,100635.00
2022-08-29T16:58:33.832Z,100645.00
2022-08-29T17:01:03.451Z,100634.00
2022-08-29T17:03:32.146Z,100642.00
2022-08-29T17:06:02.290Z,100647.00
2022-08-29T17:08:29.908Z,100646.00
2022-08-29T17:10:57.740Z,100650.00
2022-08-29T17:13:25.430Z,100649.00
2022-08-29T17:15:53.033Z,100649.00
2022-08-29T17:18:22.283Z,100648.00
2022-08-29T17:20:52.880Z,100656.00
2022-08-29T17:23:23.043Z,100656.00
2022-08-29T17:25:51.633Z,100652.00
2022-08-29T17:28:20.336Z,100649.00
2022-08-29T17:30:49.521Z,100651.00
2022-08-29T17:33:18.941Z,100654.00
2022-08-29T17:35:48.479Z,100657.00
2022-08-29T17:38:17.542Z,100664.00
2022-08-29T17:40:49.154Z,100646.00
2022-08-29T17:43:19.915Z,100655.00
2022-08-29T17:45:49.556Z,100647.00
2022-08-29T17:48:19.424Z,100655.00
2022-08-29T17:50:48.844Z,100657.00
2022-08-29T17:53:18.559Z,100655.00
2022-08-29T17:55:50.989Z,100652.00
2022-08-29T17:58:20.714Z,100654.00
2022-08-29T18:00:52.336Z,100649.00
2022-08-29T18:03:21.229Z,100655.00
2022-08-29T18:05:52.282Z,100661.00
2022-08-29T18:08:20.821Z,100659.00
2022-08-29T18:10:52.043Z,100662.00
2022-08-29T18:13:21.910Z,100665.00
2022-08-29T18:15:52.621Z,100661.00
2022-08-29T18:18:21.960Z,100669.00
2022-08-29T18:20:50.842Z,100665.00
2022-08-29T18:23:19.396Z,100670.00
2022-08-29T18:25:49.335Z,100666.00
2022-08-29T18:28:18.004Z,100670.00
2022-08-29T18:30:46.668Z,100672.00
2022-08-29T18:33:15.350Z,100677.00
2022-08-29T18:35:44.025Z,100678.00
2022-08-29T18:38:13.189Z,100680.00
2022-08-29T18:40:41.918Z,100683.00
2022-08-29T18:43:12.441Z,100674.00
2022-08-29T18:45:42.978Z,100684.00
2022-08-29T18:48:11.680Z,100685.00
2022-08-29T18:50:40.259Z,100686.00
2022-08-29T18:53:11.905Z,100681.00
2022-08-29T18:55:43.960Z,100680.00
2022-08-29T18:58:19.899Z,100684.00
2022-08-29T19:00:48.879Z,100684.00
2022-08-29T19:03:17.971Z,100685.00
2022-08-29T19:05:49.742Z,100697.00
2022-08-29T19:08:18.852Z,100689.00
2022-08-29T19:10:48.475Z,100698.00
2022-08-29T19:13:19.823Z,100699.00
2022-08-29T19:15:48.598Z,100701.00
2022-08-29T19:18:18.908Z,100704.00
2022-08-29T19:21:06.390Z,100702.00
2022-08-29T19:23:41.062Z,100702.00
2022-08-29T19:26:13.643Z,100705.00
2022-08-29T19:32:19.361Z,100710.00
2022-08-29T19:35:28.847Z,100711.00
2022-08-29T19:38:37.847Z,100710.00
2022-08-29T19:41:07.397Z,100697.00
2022-08-29T19:43:38.771Z,100707.00
2022-08-29T19:46:18.051Z,100703.00
2022-08-29T19:48:50.927Z,100704.00
2022-08-29T19:51:25.493Z,100703.00
2022-08-29T19:53:57.124Z,100710.00
2022-08-29T19:56:26.655Z,100718.00
2022-08-29T19:58:55.490Z,100714.00
2022-08-29T20:01:25.728Z,100714.00
2022-08-29T20:03:56.535Z,100711.00
2022-08-29T20:06:25.135Z,100717.00
2022-08-29T20:08:53.737Z,100718.00
2022-08-29T20:11:25.226Z,100714.00
2022-08-29T20:14:00.961Z,100710.00
2022-08-29T20:16:34.657Z,100715.00
2022-08-29T20:19:05.985Z,100714.00
2022-08-29T20:21:35.983Z,100715.00
2022-08-29T20:24:05.761Z,100717.00
2022-08-29T20:26:39.469Z,100722.00
2022-08-29T20:29:31.902Z,100721.00
2022-08-29T20:32:10.209Z,100720.00
2022-08-29T20:34:48.031Z,100726.00
2022-08-29T20:37:34.411Z,100721.00
2022-08-29T20:40:10.020Z,100727.00
2022-08-29T20:42:42.175Z,100719.00
2022-08-29T20:46:01.408Z,100719.00
2022-08-29T20:48:42.461Z,100725.00
2022-08-29T20:54:38.229Z,100729.00
2022-08-29T20:57:07.467Z,100726.00
2022-08-29T20:59:39.447Z,100735.00
2022-08-29T21:02:09.908Z,100733.00
2022-08-29T21:04:56.531Z,100728.00
2022-08-29T21:07:27.325Z,100729.00
2022-08-29T21:09:55.997Z,100729.00
2022-08-29T21:12:27.473Z,100733.00
2022-08-29T21:14:56.230Z,100739.00
2022-08-29T21:17:24.808Z,100737.00
2022-08-29T21:19:53.319Z,100744.00
2022-08-29T21:22:24.971Z,100746.00
2022-08-29T21:24:56.242Z,100751.00
2022-08-29T21:27:24.854Z,100762.00
2022-08-29T21:29:55.944Z,100757.00
2022-08-29T21:32:24.903Z,100748.00
2022-08-29T21:34:59.062Z,100761.00
2022-08-29T21:37:28.579Z,100748.00
2022-08-29T21:40:01.714Z,100750.00
2022-08-29T21:42:30.601Z,100749.00
2022-08-29T21:44:59.678Z,100749.00
2022-08-29T21:47:28.223Z,100748.00
2022-08-29T21:49:57.091Z,100759.00
2022-08-29T21:52:25.860Z,100759.00
2022-08-29T21:54:55.104Z,100747.00
2022-08-29T21:57:42.668Z,100748.00
2022-08-29T22:00:13.005Z,100751.00
2022-08-29T22:02:42.282Z,100753.00
2022-08-29T22:05:11.058Z,100757.00
2022-08-29T22:07:40.635Z,100753.00
2022-08-29T22:10:13.626Z,100754.00
2022-08-29T22:12:43.715Z,100752.00
2022-08-29T22:15:30.350Z,100751.00
2022-08-29T22:17:59.074Z,100750.00
2022-08-29T22:20:27.938Z,100747.00
2022-08-29T22:22:57.491Z,100745.00
2022-08-29T22:25:27.166Z,100754.00
2022-08-29T22:27:58.703Z,100747.00
2022-08-29T22:30:32.069Z,100748.00
2022-08-29T22:33:01.391Z,100746.00
2022-08-29T22:35:30.405Z,100753.00
2022-08-29T22:37:59.132Z,100750.00
2022-08-29T22:40:28.194Z,100748.00
2022-08-29T22:42:58.231Z,100749.00
2022-08-29T22:45:26.845Z,100748.00
2022-08-29T22:47:55.546Z,100746.00
2022-08-29T22:50:25.838Z,100741.00
2022-08-29T22:52:57.517Z,100744.00
2022-08-29T22:57:54.432Z,100741.00
2022-08-29T23:00:26.807Z,100746.00
2022-08-29T23:02:56.057Z,100743.00
2022-08-29T23:05:25.260Z,100742.00
2022-08-29T23:07:54.081Z,100745.00
2022-08-29T23:10:23.004Z,100748.00
2022-08-29T23:12:51.687Z,100745.00
2022-08-29T23:15:20.749Z,100742.00
2022-08-29T23:17:50.721Z,100739.00
2022-08-29T23:20:19.462Z,100742.00
2022-08-29T23:22:48.729Z,100746.00
2022-08-29T23:25:17.909Z,100748.00
2022-08-29T23:27:46.562Z,100743.00
2022-08-29T23:30:15.682Z,100739.00
2022-08-29T23:32:44.248Z,100741.00
2022-08-29T23:35:14.321Z,100740.00
2022-08-29T23:37:42.939Z,100734.00
2022-08-29T23:40:12.348Z,100736.00
2022-08-29T23:42:41.137Z,100736.00
2022-08-29T23:45:11.243Z,100743.00
2022-08-29T23:47:40.067Z,100741.00
2022-08-29T23:50:09.806Z,100735.00
2022-08-29T23:52:39.759Z,100739.00
2022-08-29T23:55:09.480Z,100737.00
2022-08-29T23:57:38.462Z,100734.00
